sensor_id;sensor_type;location;lat;lon;timestamp;temperature;humidity
7077;DHT22;3579;48.956;9.154;2024-02-21T00:01:04;17.50;67.70
7077;DHT22;3579;48.956;9.154;2024-02-21T00:03:30;17.50;67.70
7077;DHT22;3579;48.956;9.154;2024-02-21T00:05:56;17.50;67.70
7077;DHT22;3579;48.956;9.154;2024-02-21T00:08:22;17.50;67.70
7077;DHT22;3579;48.956;9.154;2024-02-21T00:10:48;17.50;67.70
7077;DHT22;3579;48.956;9.154;2024-02-21T00:13:15;17.50;67.70
7077;DHT22;3579;48.956;9.154;2024-02-21T00:15:41;17.40;67.60
7077;DHT22;3579;48.956;9.154;2024-02-21T00:20:33;17.40;67.20
7077;DHT22;3579;48.956;9.154;2024-02-21T00:22:59;17.40;67.80
7077;DHT22;3579;48.956;9.154;2024-02-21T00:25:25;17.40;67.80
7077;DHT22;3579;48.956;9.154;2024-02-21T00:27:51;17.40;67.80
7077;DHT22;3579;48.956;9.154;2024-02-21T00:30:17;17.40;67.70
7077;DHT22;3579;48.956;9.154;2024-02-21T00:32:43;17.40;68.50
7077;DHT22;3579;48.956;9.154;2024-02-21T00:35:09;17.40;67.70
7077;DHT22;3579;48.956;9.154;2024-02-21T00:37:35;17.40;67.70
7077;DHT22;3579;48.956;9.154;2024-02-21T00:40:01;17.40;67.80
7077;DHT22;3579;48.956;9.154;2024-02-21T00:42:27;17.40;67.70
7077;DHT22;3579;48.956;9.154;2024-02-21T00:44:53;17.50;67.80
7077;DHT22;3579;48.956;9.154;2024-02-21T00:47:19;17.50;67.80
7077;DHT22;3579;48.956;9.154;2024-02-21T00:49:45;17.40;67.80
7077;DHT22;3579;48.956;9.154;2024-02-21T00:52:11;17.40;67.80
7077;DHT22;3579;48.956;9.154;2024-02-21T00:54:37;17.40;67.80
7077;DHT22;3579;48.956;9.154;2024-02-21T00:57:03;17.40;67.80
7077;DHT22;3579;48.956;9.154;2024-02-21T00:59:29;17.40;67.80
7077;DHT22;3579;48.956;9.154;2024-02-21T01:01:55;17.40;67.80
7077;DHT22;3579;48.956;9.154;2024-02-21T01:04:21;17.40;67.80
7077;DHT22;3579;48.956;9.154;2024-02-21T01:06:47;17.40;67.90
7077;DHT22;3579;48.956;9.154;2024-02-21T01:09:13;17.40;67.80
7077;DHT22;3579;48.956;9.154;2024-02-21T01:11:40;17.40;67.80
7077;DHT22;3579;48.956;9.154;2024-02-21T01:14:06;17.40;67.80
7077;DHT22;3579;48.956;9.154;2024-02-21T01:16:32;17.40;67.80
7077;DHT22;3579;48.956;9.154;2024-02-21T01:18:58;17.40;67.70
7077;DHT22;3579;48.956;9.154;2024-02-21T01:21:24;17.40;67.70
7077;DHT22;3579;48.956;9.154;2024-02-21T01:23:50;17.40;67.70
7077;DHT22;3579;48.956;9.154;2024-02-21T01:26:16;17.40;67.80
7077;DHT22;3579;48.956;9.154;2024-02-21T01:28:42;17.30;67.70
7077;DHT22;3579;48.956;9.154;2024-02-21T01:31:08;17.30;67.70
7077;DHT22;3579;48.956;9.154;2024-02-21T01:33:34;17.30;67.70
7077;DHT22;3579;48.956;9.154;2024-02-21T01:36:05;17.40;67.90
7077;DHT22;3579;48.956;9.154;2024-02-21T01:38:33;17.30;67.80
7077;DHT22;3579;48.956;9.154;2024-02-21T01:41:00;17.30;67.80
7077;DHT22;3579;48.956;9.154;2024-02-21T01:43:26;17.40;67.80
7077;DHT22;3579;48.956;9.154;2024-02-21T01:45:55;17.40;67.90
7077;DHT22;3579;48.956;9.154;2024-02-21T01:48:24;17.40;67.80
7077;DHT22;3579;48.956;9.154;2024-02-21T01:50:52;17.40;67.80
7077;DHT22;3579;48.956;9.154;2024-02-21T01:53:21;17.40;67.80
7077;DHT22;3579;48.956;9.154;2024-02-21T01:55:48;17.40;67.80
7077;DHT22;3579;48.956;9.154;2024-02-21T01:58:15;17.50;67.50
7077;DHT22;3579;48.956;9.154;2024-02-21T02:00:48;17.40;67.80
7077;DHT22;3579;48.956;9.154;2024-02-21T02:03:14;17.30;67.80
7077;DHT22;3579;48.956;9.154;2024-02-21T02:05:45;17.40;67.90
7077;DHT22;3579;48.956;9.154;2024-02-21T02:08:21;17.30;67.80
7077;DHT22;3579;48.956;9.154;2024-02-21T02:10:50;17.40;67.90
7077;DHT22;3579;48.956;9.154;2024-02-21T02:13:16;17.30;67.80
7077;DHT22;3579;48.956;9.154;2024-02-21T02:18:10;17.60;67.80
7077;DHT22;3579;48.956;9.154;2024-02-21T02:20:36;17.30;68.50
7077;DHT22;3579;48.956;9.154;2024-02-21T02:23:26;17.30;67.80
7077;DHT22;3579;48.956;9.154;2024-02-21T02:25:53;17.30;67.80
7077;DHT22;3579;48.956;9.154;2024-02-21T02:28:20;17.30;67.80
7077;DHT22;3579;48.956;9.154;2024-02-21T02:30:47;17.30;67.80
7077;DHT22;3579;48.956;9.154;2024-02-21T02:33:13;17.30;67.80
7077;DHT22;3579;48.956;9.154;2024-02-21T02:35:39;17.30;67.70
7077;DHT22;3579;48.956;9.154;2024-02-21T02:38:05;17.30;67.70
7077;DHT22;3579;48.956;9.154;2024-02-21T02:40:33;17.30;67.70
7077;DHT22;3579;48.956;9.154;2024-02-21T02:42:59;17.30;67.80
7077;DHT22;3579;48.956;9.154;2024-02-21T02:45:26;17.30;67.80
7077;DHT22;3579;48.956;9.154;2024-02-21T02:47:53;19.20;69.80
7077;DHT22;3579;48.956;9.154;2024-02-21T02:50:26;17.20;67.80
7077;DHT22;3579;48.956;9.154;2024-02-21T02:52:53;17.30;67.90
7077;DHT22;3579;48.956;9.154;2024-02-21T02:55:19;17.30;67.90
7077;DHT22;3579;48.956;9.154;2024-02-21T02:57:46;17.30;67.80
7077;DHT22;3579;48.956;9.154;2024-02-21T03:00:13;17.30;67.80
7077;DHT22;3579;48.956;9.154;2024-02-21T03:02:40;17.30;67.80
7077;DHT22;3579;48.956;9.154;2024-02-21T03:05:13;17.30;67.80
7077;DHT22;3579;48.956;9.154;2024-02-21T03:07:43;14.60;65.00
7077;DHT22;3579;48.956;9.154;2024-02-21T03:10:10;17.30;67.80
7077;DHT22;3579;48.956;9.154;2024-02-21T03:12:36;17.30;67.80
7077;DHT22;3579;48.956;9.154;2024-02-21T03:15:03;17.30;67.80
7077;DHT22;3579;48.956;9.154;2024-02-21T03:17:29;18.50;69.20
7077;DHT22;3579;48.956;9.154;2024-02-21T03:19:55;17.30;67.90
7077;DHT22;3579;48.956;9.154;2024-02-21T03:22:22;17.30;67.90
7077;DHT22;3579;48.956;9.154;2024-02-21T03:24:48;17.30;67.90
7077;DHT22;3579;48.956;9.154;2024-02-21T03:27:14;17.30;67.90
7077;DHT22;3579;48.956;9.154;2024-02-21T03:29:41;17.30;67.90
7077;DHT22;3579;48.956;9.154;2024-02-21T03:32:06;17.30;67.90
7077;DHT22;3579;48.956;9.154;2024-02-21T03:34:32;17.30;67.90
7077;DHT22;3579;48.956;9.154;2024-02-21T03:36:59;17.30;67.90
7077;DHT22;3579;48.956;9.154;2024-02-21T03:39:25;17.30;68.50
7077;DHT22;3579;48.956;9.154;2024-02-21T03:41:52;17.20;67.80
7077;DHT22;3579;48.956;9.154;2024-02-21T03:44:18;17.20;67.80
7077;DHT22;3579;48.956;9.154;2024-02-21T03:46:43;17.20;67.80
7077;DHT22;3579;48.956;9.154;2024-02-21T03:49:09;17.20;67.80
7077;DHT22;3579;48.956;9.154;2024-02-21T03:51:35;17.20;67.70
7077;DHT22;3579;48.956;9.154;2024-02-21T03:54:01;17.20;68.40
7077;DHT22;3579;48.956;9.154;2024-02-21T03:56:27;17.20;67.80
7077;DHT22;3579;48.956;9.154;2024-02-21T03:58:53;17.20;67.80
7077;DHT22;3579;48.956;9.154;2024-02-21T04:01:19;17.20;67.80
7077;DHT22;3579;48.956;9.154;2024-02-21T04:03:45;17.20;67.90
7077;DHT22;3579;48.956;9.154;2024-02-21T04:06:11;17.20;67.90
7077;DHT22;3579;48.956;9.154;2024-02-21T04:08:39;17.20;67.80
7077;DHT22;3579;48.956;9.154;2024-02-21T04:11:05;17.20;67.80
7077;DHT22;3579;48.956;9.154;2024-02-21T04:13:31;17.20;67.80
7077;DHT22;3579;48.956;9.154;2024-02-21T04:15:57;17.20;67.80
7077;DHT22;3579;48.956;9.154;2024-02-21T04:18:23;17.30;67.50
7077;DHT22;3579;48.956;9.154;2024-02-21T04:20:50;17.20;67.80
7077;DHT22;3579;48.956;9.154;2024-02-21T04:23:16;17.20;67.80
7077;DHT22;3579;48.956;9.154;2024-02-21T04:25:42;17.20;67.80
7077;DHT22;3579;48.956;9.154;2024-02-21T04:28:08;17.20;67.80
7077;DHT22;3579;48.956;9.154;2024-02-21T04:30:34;17.20;67.80
7077;DHT22;3579;48.956;9.154;2024-02-21T04:33:00;17.20;67.90
7077;DHT22;3579;48.956;9.154;2024-02-21T04:35:26;17.20;67.80
7077;DHT22;3579;48.956;9.154;2024-02-21T04:37:52;17.20;67.90
7077;DHT22;3579;48.956;9.154;2024-02-21T04:40:18;17.20;67.90
7077;DHT22;3579;48.956;9.154;2024-02-21T04:42:44;17.20;67.80
7077;DHT22;3579;48.956;9.154;2024-02-21T04:45:10;17.20;67.80
7077;DHT22;3579;48.956;9.154;2024-02-21T04:47:36;17.20;67.80
7077;DHT22;3579;48.956;9.154;2024-02-21T04:50:02;17.20;67.80
7077;DHT22;3579;48.956;9.154;2024-02-21T04:52:29;17.20;67.80
7077;DHT22;3579;48.956;9.154;2024-02-21T04:54:55;17.20;67.80
7077;DHT22;3579;48.956;9.154;2024-02-21T04:57:21;17.20;67.80
7077;DHT22;3579;48.956;9.154;2024-02-21T04:59:47;17.20;67.70
7077;DHT22;3579;48.956;9.154;2024-02-21T05:02:14;17.10;67.60
7077;DHT22;3579;48.956;9.154;2024-02-21T05:04:40;17.10;67.60
7077;DHT22;3579;48.956;9.154;2024-02-21T05:07:07;17.10;67.60
7077;DHT22;3579;48.956;9.154;2024-02-21T05:09:34;17.10;68.30
7077;DHT22;3579;48.956;9.154;2024-02-21T05:12:00;17.10;67.60
7077;DHT22;3579;48.956;9.154;2024-02-21T05:14:26;17.10;67.60
7077;DHT22;3579;48.956;9.154;2024-02-21T05:16:55;17.10;67.70
7077;DHT22;3579;48.956;9.154;2024-02-21T05:19:21;17.10;67.70
7077;DHT22;3579;48.956;9.154;2024-02-21T05:21:47;17.10;67.60
7077;DHT22;3579;48.956;9.154;2024-02-21T05:24:13;17.10;67.60
7077;DHT22;3579;48.956;9.154;2024-02-21T05:26:39;17.10;67.60
7077;DHT22;3579;48.956;9.154;2024-02-21T05:29:05;17.10;67.60
7077;DHT22;3579;48.956;9.154;2024-02-21T05:34:16;17.10;67.50
7077;DHT22;3579;48.956;9.154;2024-02-21T05:36:42;17.10;67.50
7077;DHT22;3579;48.956;9.154;2024-02-21T05:39:08;17.10;67.50
7077;DHT22;3579;48.956;9.154;2024-02-21T05:41:34;17.10;67.50
7077;DHT22;3579;48.956;9.154;2024-02-21T05:44:00;17.10;67.50
7077;DHT22;3579;48.956;9.154;2024-02-21T05:46:26;17.10;67.60
7077;DHT22;3579;48.956;9.154;2024-02-21T05:48:52;17.10;67.60
7077;DHT22;3579;48.956;9.154;2024-02-21T05:51:18;17.10;67.60
7077;DHT22;3579;48.956;9.154;2024-02-21T05:53:44;17.10;68.20
7077;DHT22;3579;48.956;9.154;2024-02-21T05:56:11;17.10;67.50
7077;DHT22;3579;48.956;9.154;2024-02-21T05:58:38;17.10;67.60
7077;DHT22;3579;48.956;9.154;2024-02-21T06:01:04;17.10;67.60
7077;DHT22;3579;48.956;9.154;2024-02-21T06:03:33;17.10;67.60
7077;DHT22;3579;48.956;9.154;2024-02-21T06:06:00;17.10;67.60
7077;DHT22;3579;48.956;9.154;2024-02-21T06:08:26;16.90;67.10
7077;DHT22;3579;48.956;9.154;2024-02-21T06:10:52;17.10;67.60
7077;DHT22;3579;48.956;9.154;2024-02-21T06:13:26;17.00;67.40
7077;DHT22;3579;48.956;9.154;2024-02-21T06:15:53;17.00;68.00
7077;DHT22;3579;48.956;9.154;2024-02-21T06:18:20;17.00;67.30
7077;DHT22;3579;48.956;9.154;2024-02-21T06:20:46;17.00;67.40
7077;DHT22;3579;48.956;9.154;2024-02-21T06:23:13;17.00;67.40
7077;DHT22;3579;48.956;9.154;2024-02-21T06:25:39;17.00;67.40
7077;DHT22;3579;48.956;9.154;2024-02-21T06:28:05;17.00;68.10
7077;DHT22;3579;48.956;9.154;2024-02-21T06:30:32;17.00;67.40
7077;DHT22;3579;48.956;9.154;2024-02-21T06:32:57;17.00;67.40
7077;DHT22;3579;48.956;9.154;2024-02-21T06:35:25;17.00;67.40
7077;DHT22;3579;48.956;9.154;2024-02-21T06:37:51;17.00;67.40
7077;DHT22;3579;48.956;9.154;2024-02-21T06:40:22;17.00;67.40
7077;DHT22;3579;48.956;9.154;2024-02-21T06:42:48;17.10;67.50
7077;DHT22;3579;48.956;9.154;2024-02-21T06:45:15;17.10;67.40
7077;DHT22;3579;48.956;9.154;2024-02-21T06:47:41;17.10;67.40
7077;DHT22;3579;48.956;9.154;2024-02-21T06:50:07;17.10;67.40
7077;DHT22;3579;48.956;9.154;2024-02-21T06:52:35;17.10;67.40
7077;DHT22;3579;48.956;9.154;2024-02-21T06:55:01;17.10;67.40
7077;DHT22;3579;48.956;9.154;2024-02-21T06:57:28;17.10;67.30
7077;DHT22;3579;48.956;9.154;2024-02-21T06:59:55;17.20;67.40
7077;DHT22;3579;48.956;9.154;2024-02-21T07:02:21;17.20;67.30
7077;DHT22;3579;48.956;9.154;2024-02-21T07:04:47;17.20;67.30
7077;DHT22;3579;48.956;9.154;2024-02-21T07:07:13;17.20;67.30
7077;DHT22;3579;48.956;9.154;2024-02-21T07:09:39;17.20;67.20
7077;DHT22;3579;48.956;9.154;2024-02-21T07:12:05;17.20;67.20
7077;DHT22;3579;48.956;9.154;2024-02-21T07:14:36;17.30;67.30
7077;DHT22;3579;48.956;9.154;2024-02-21T07:17:02;17.30;67.20
7077;DHT22;3579;48.956;9.154;2024-02-21T07:19:29;17.30;67.20
7077;DHT22;3579;48.956;9.154;2024-02-21T07:21:56;17.00;60.30
7077;DHT22;3579;48.956;9.154;2024-02-21T07:24:22;16.30;56.70
7077;DHT22;3579;48.956;9.154;2024-02-21T07:26:48;15.90;55.90
7077;DHT22;3579;48.956;9.154;2024-02-21T07:29:14;15.80;56.20
7077;DHT22;3579;48.956;9.154;2024-02-21T07:31:41;16.00;56.10
7077;DHT22;3579;48.956;9.154;2024-02-21T07:34:08;16.30;57.70
7077;DHT22;3579;48.956;9.154;2024-02-21T07:36:34;16.60;59.00
7077;DHT22;3579;48.956;9.154;2024-02-21T07:39:01;16.80;59.60
7077;DHT22;3579;48.956;9.154;2024-02-21T07:41:27;16.90;60.40
7077;DHT22;3579;48.956;9.154;2024-02-21T07:43:56;17.10;60.60
7077;DHT22;3579;48.956;9.154;2024-02-21T07:46:22;17.30;61.40
7077;DHT22;3579;48.956;9.154;2024-02-21T07:48:48;17.40;61.60
7077;DHT22;3579;48.956;9.154;2024-02-21T07:51:14;17.60;61.80
7077;DHT22;3579;48.956;9.154;2024-02-21T07:53:44;17.70;62.20
7077;DHT22;3579;48.956;9.154;2024-02-21T07:56:15;17.80;62.70
7077;DHT22;3579;48.956;9.154;2024-02-21T07:58:41;17.80;63.80
7077;DHT22;3579;48.956;9.154;2024-02-21T08:01:08;18.00;63.80
7077;DHT22;3579;48.956;9.154;2024-02-21T08:03:34;18.00;63.80
7077;DHT22;3579;48.956;9.154;2024-02-21T08:06:02;18.10;64.00
7077;DHT22;3579;48.956;9.154;2024-02-21T08:08:28;18.10;64.00
7077;DHT22;3579;48.956;9.154;2024-02-21T08:10:54;18.20;64.30
7077;DHT22;3579;48.956;9.154;2024-02-21T08:13:20;18.20;64.10
7077;DHT22;3579;48.956;9.154;2024-02-21T08:15:47;18.20;62.80
7077;DHT22;3579;48.956;9.154;2024-02-21T08:18:13;18.20;62.60
7077;DHT22;3579;48.956;9.154;2024-02-21T08:20:39;18.20;61.20
7077;DHT22;3579;48.956;9.154;2024-02-21T08:23:05;18.40;62.10
7077;DHT22;3579;48.956;9.154;2024-02-21T08:25:31;18.60;63.00
7077;DHT22;3579;48.956;9.154;2024-02-21T08:27:58;18.70;63.00
7077;DHT22;3579;48.956;9.154;2024-02-21T08:30:25;18.80;62.60
7077;DHT22;3579;48.956;9.154;2024-02-21T08:32:51;18.90;63.30
7077;DHT22;3579;48.956;9.154;2024-02-21T08:35:17;18.90;63.40
7077;DHT22;3579;48.956;9.154;2024-02-21T08:37:45;19.00;63.60
7077;DHT22;3579;48.956;9.154;2024-02-21T08:40:14;19.00;63.60
7077;DHT22;3579;48.956;9.154;2024-02-21T08:42:43;19.10;64.50
7077;DHT22;3579;48.956;9.154;2024-02-21T08:45:10;19.20;63.80
7077;DHT22;3579;48.956;9.154;2024-02-21T08:47:38;19.20;63.40
7077;DHT22;3579;48.956;9.154;2024-02-21T08:50:05;18.80;62.60
7077;DHT22;3579;48.956;9.154;2024-02-21T08:52:31;19.00;62.20
7077;DHT22;3579;48.956;9.154;2024-02-21T08:54:58;19.00;61.20
7077;DHT22;3579;48.956;9.154;2024-02-21T08:57:24;19.00;61.50
7077;DHT22;3579;48.956;9.154;2024-02-21T08:59:50;19.00;61.00
7077;DHT22;3579;48.956;9.154;2024-02-21T09:02:16;19.10;61.10
7077;DHT22;3579;48.956;9.154;2024-02-21T09:04:42;19.10;60.90
7077;DHT22;3579;48.956;9.154;2024-02-21T09:07:12;19.20;61.00
7077;DHT22;3579;48.956;9.154;2024-02-21T09:09:38;19.20;61.20
7077;DHT22;3579;48.956;9.154;2024-02-21T09:12:06;19.20;60.60
7077;DHT22;3579;48.956;9.154;2024-02-21T09:14:33;19.30;61.10
7077;DHT22;3579;48.956;9.154;2024-02-21T09:17:00;19.30;60.80
7077;DHT22;3579;48.956;9.154;2024-02-21T09:19:26;19.30;60.70
7077;DHT22;3579;48.956;9.154;2024-02-21T09:21:52;19.40;61.10
7077;DHT22;3579;48.956;9.154;2024-02-21T09:24:19;19.40;60.50
7077;DHT22;3579;48.956;9.154;2024-02-21T09:26:49;19.40;60.40
7077;DHT22;3579;48.956;9.154;2024-02-21T09:29:25;19.40;60.50
7077;DHT22;3579;48.956;9.154;2024-02-21T09:32:01;19.50;60.50
7077;DHT22;3579;48.956;9.154;2024-02-21T09:34:33;19.50;60.70
7077;DHT22;3579;48.956;9.154;2024-02-21T09:37:06;19.50;60.70
7077;DHT22;3579;48.956;9.154;2024-02-21T09:39:32;19.60;61.30
7077;DHT22;3579;48.956;9.154;2024-02-21T09:42:05;19.60;60.80
7077;DHT22;3579;48.956;9.154;2024-02-21T09:44:36;19.60;60.70
7077;DHT22;3579;48.956;9.154;2024-02-21T09:47:06;19.70;60.40
7077;DHT22;3579;48.956;9.154;2024-02-21T09:49:33;19.80;60.50
7077;DHT22;3579;48.956;9.154;2024-02-21T09:52:03;20.00;60.80
7077;DHT22;3579;48.956;9.154;2024-02-21T09:54:30;20.20;60.80
7077;DHT22;3579;48.956;9.154;2024-02-21T09:57:03;20.30;61.00
7077;DHT22;3579;48.956;9.154;2024-02-21T09:59:32;20.40;61.30
7077;DHT22;3579;48.956;9.154;2024-02-21T10:01:58;20.50;61.50
7077;DHT22;3579;48.956;9.154;2024-02-21T10:04:27;20.60;61.50
7077;DHT22;3579;48.956;9.154;2024-02-21T10:06:54;20.60;62.20
7077;DHT22;3579;48.956;9.154;2024-02-21T10:09:27;20.70;61.60
7077;DHT22;3579;48.956;9.154;2024-02-21T10:11:55;20.80;61.60
7077;DHT22;3579;48.956;9.154;2024-02-21T10:14:22;20.80;61.60
7077;DHT22;3579;48.956;9.154;2024-02-21T10:16:56;20.90;60.90
7077;DHT22;3579;48.956;9.154;2024-02-21T10:19:22;21.00;61.60
7077;DHT22;3579;48.956;9.154;2024-02-21T10:22:07;20.90;60.20
7077;DHT22;3579;48.956;9.154;2024-02-21T10:24:37;20.70;59.20
7077;DHT22;3579;48.956;9.154;2024-02-21T10:27:09;20.70;59.70
7077;DHT22;3579;48.956;9.154;2024-02-21T10:29:40;20.70;58.70
7077;DHT22;3579;48.956;9.154;2024-02-21T10:32:14;20.70;58.90
7077;DHT22;3579;48.956;9.154;2024-02-21T10:34:42;20.70;58.50
7077;DHT22;3579;48.956;9.154;2024-02-21T10:37:09;20.90;59.80
7077;DHT22;3579;48.956;9.154;2024-02-21T10:39:38;21.10;60.00
7077;DHT22;3579;48.956;9.154;2024-02-21T10:42:04;21.10;59.30
7077;DHT22;3579;48.956;9.154;2024-02-21T10:44:37;21.30;60.40
7077;DHT22;3579;48.956;9.154;2024-02-21T10:47:08;21.40;59.70
7077;DHT22;3579;48.956;9.154;2024-02-21T10:49:39;21.50;59.90
7077;DHT22;3579;48.956;9.154;2024-02-21T10:52:25;21.60;59.90
7077;DHT22;3579;48.956;9.154;2024-02-21T10:55:11;21.60;60.00
7077;DHT22;3579;48.956;9.154;2024-02-21T10:57:39;21.70;60.00
7077;DHT22;3579;48.956;9.154;2024-02-21T11:00:06;21.80;60.20
7077;DHT22;3579;48.956;9.154;2024-02-21T11:02:39;21.90;60.30
7077;DHT22;3579;48.956;9.154;2024-02-21T11:05:06;22.00;60.50
7077;DHT22;3579;48.956;9.154;2024-02-21T11:07:36;22.00;60.40
7077;DHT22;3579;48.956;9.154;2024-02-21T11:10:03;22.00;60.40
7077;DHT22;3579;48.956;9.154;2024-02-21T11:12:32;22.10;60.50
7077;DHT22;3579;48.956;9.154;2024-02-21T11:15:06;22.10;60.00
7077;DHT22;3579;48.956;9.154;2024-02-21T11:17:32;22.00;59.60
7077;DHT22;3579;48.956;9.154;2024-02-21T11:19:58;22.10;59.60
7077;DHT22;3579;48.956;9.154;2024-02-21T11:22:25;22.20;59.50
7077;DHT22;3579;48.956;9.154;2024-02-21T11:24:55;22.30;59.60
7077;DHT22;3579;48.956;9.154;2024-02-21T11:27:22;22.30;59.80
7077;DHT22;3579;48.956;9.154;2024-02-21T11:29:56;22.40;59.90
7077;DHT22;3579;48.956;9.154;2024-02-21T11:32:22;22.40;60.00
7077;DHT22;3579;48.956;9.154;2024-02-21T11:34:58;22.50;60.10
7077;DHT22;3579;48.956;9.154;2024-02-21T11:37:28;22.50;60.20
7077;DHT22;3579;48.956;9.154;2024-02-21T11:39:55;22.60;60.20
7077;DHT22;3579;48.956;9.154;2024-02-21T11:42:22;22.60;60.20
7077;DHT22;3579;48.956;9.154;2024-02-21T11:44:48;22.70;60.40
7077;DHT22;3579;48.956;9.154;2024-02-21T11:47:15;22.60;59.10
7077;DHT22;3579;48.956;9.154;2024-02-21T11:49:48;22.80;59.60
7077;DHT22;3579;48.956;9.154;2024-02-21T11:52:16;22.90;59.80
7077;DHT22;3579;48.956;9.154;2024-02-21T11:54:44;22.90;60.00
7077;DHT22;3579;48.956;9.154;2024-02-21T11:57:11;23.00;60.10
7077;DHT22;3579;48.956;9.154;2024-02-21T11:59:39;23.00;60.20
7077;DHT22;3579;48.956;9.154;2024-02-21T12:02:05;23.00;60.30
7077;DHT22;3579;48.956;9.154;2024-02-21T12:04:32;22.90;60.10
7077;DHT22;3579;48.956;9.154;2024-02-21T12:06:59;22.90;60.30
7077;DHT22;3579;48.956;9.154;2024-02-21T12:09:26;22.90;59.80
7077;DHT22;3579;48.956;9.154;2024-02-21T12:12:02;22.90;60.00
7077;DHT22;3579;48.956;9.154;2024-02-21T12:14:35;22.90;59.90
7077;DHT22;3579;48.956;9.154;2024-02-21T12:17:01;22.90;60.00
7077;DHT22;3579;48.956;9.154;2024-02-21T12:19:31;22.90;59.90
7077;DHT22;3579;48.956;9.154;2024-02-21T12:21:59;22.90;60.00
7077;DHT22;3579;48.956;9.154;2024-02-21T12:24:27;22.90;60.00
7077;DHT22;3579;48.956;9.154;2024-02-21T12:26:54;23.00;60.20
7077;DHT22;3579;48.956;9.154;2024-02-21T12:29:23;23.00;60.20
7077;DHT22;3579;48.956;9.154;2024-02-21T12:31:50;23.00;60.20
7077;DHT22;3579;48.956;9.154;2024-02-21T12:34:17;23.00;60.10
7077;DHT22;3579;48.956;9.154;2024-02-21T12:36:44;23.00;60.30
7077;DHT22;3579;48.956;9.154;2024-02-21T12:39:14;22.90;59.00
7077;DHT22;3579;48.956;9.154;2024-02-21T12:41:41;22.90;59.50
7077;DHT22;3579;48.956;9.154;2024-02-21T12:44:09;23.00;59.40
7077;DHT22;3579;48.956;9.154;2024-02-21T12:46:37;23.00;59.40
7077;DHT22;3579;48.956;9.154;2024-02-21T12:49:04;24.50;60.90
7077;DHT22;3579;48.956;9.154;2024-02-21T12:51:35;23.10;59.60
7077;DHT22;3579;48.956;9.154;2024-02-21T12:54:02;23.10;59.50
7077;DHT22;3579;48.956;9.154;2024-02-21T12:56:31;23.10;59.50
7077;DHT22;3579;48.956;9.154;2024-02-21T12:58:58;23.20;59.70
7077;DHT22;3579;48.956;9.154;2024-02-21T13:01:24;23.20;59.70
7077;DHT22;3579;48.956;9.154;2024-02-21T13:03:50;23.20;59.60
7077;DHT22;3579;48.956;9.154;2024-02-21T13:06:16;23.20;59.70
7077;DHT22;3579;48.956;9.154;2024-02-21T13:08:42;23.30;60.00
7077;DHT22;3579;48.956;9.154;2024-02-21T13:11:10;23.30;59.90
7077;DHT22;3579;48.956;9.154;2024-02-21T13:13:36;23.30;60.00
7077;DHT22;3579;48.956;9.154;2024-02-21T13:16:03;23.40;60.00
7077;DHT22;3579;48.956;9.154;2024-02-21T13:18:29;23.30;60.00
7077;DHT22;3579;48.956;9.154;2024-02-21T13:20:55;23.40;59.90
7077;DHT22;3579;48.956;9.154;2024-02-21T13:23:21;23.40;59.90
7077;DHT22;3579;48.956;9.154;2024-02-21T13:25:48;23.30;54.30
7077;DHT22;3579;48.956;9.154;2024-02-21T13:28:15;22.10;48.30
7077;DHT22;3579;48.956;9.154;2024-02-21T13:30:43;22.20;48.60
7077;DHT22;3579;48.956;9.154;2024-02-21T13:33:09;22.40;49.30
7077;DHT22;3579;48.956;9.154;2024-02-21T13:35:35;22.60;50.50
7077;DHT22;3579;48.956;9.154;2024-02-21T13:38:03;22.80;50.10
7077;DHT22;3579;48.956;9.154;2024-02-21T13:40:29;22.60;51.00
7077;DHT22;3579;48.956;9.154;2024-02-21T13:42:55;22.40;49.70
7077;DHT22;3579;48.956;9.154;2024-02-21T13:45:22;22.40;49.10
7077;DHT22;3579;48.956;9.154;2024-02-21T13:47:49;22.20;49.60
7077;DHT22;3579;48.956;9.154;2024-02-21T13:50:16;22.60;51.90
7077;DHT22;3579;48.956;9.154;2024-02-21T13:52:43;22.80;52.00
7077;DHT22;3579;48.956;9.154;2024-02-21T13:55:09;23.00;52.40
7077;DHT22;3579;48.956;9.154;2024-02-21T13:57:38;23.20;53.00
7077;DHT22;3579;48.956;9.154;2024-02-21T14:00:05;23.30;54.20
7077;DHT22;3579;48.956;9.154;2024-02-21T14:02:32;23.40;54.60
7077;DHT22;3579;48.956;9.154;2024-02-21T14:04:59;23.40;54.50
7077;DHT22;3579;48.956;9.154;2024-02-21T14:07:25;23.50;55.10
7077;DHT22;3579;48.956;9.154;2024-02-21T14:09:52;23.60;55.40
7077;DHT22;3579;48.956;9.154;2024-02-21T14:12:18;23.60;55.70
7077;DHT22;3579;48.956;9.154;2024-02-21T14:14:46;23.70;56.00
7077;DHT22;3579;48.956;9.154;2024-02-21T14:17:13;23.70;56.20
7077;DHT22;3579;48.956;9.154;2024-02-21T14:19:39;23.70;56.40
7077;DHT22;3579;48.956;9.154;2024-02-21T14:22:05;23.80;56.90
7077;DHT22;3579;48.956;9.154;2024-02-21T14:24:31;23.80;57.20
7077;DHT22;3579;48.956;9.154;2024-02-21T14:26:58;23.80;57.30
7077;DHT22;3579;48.956;9.154;2024-02-21T14:29:25;23.80;57.60
7077;DHT22;3579;48.956;9.154;2024-02-21T14:31:52;23.80;57.80
7077;DHT22;3579;48.956;9.154;2024-02-21T14:34:18;23.80;58.00
7077;DHT22;3579;48.956;9.154;2024-02-21T14:36:44;23.80;58.40
7077;DHT22;3579;48.956;9.154;2024-02-21T14:39:10;23.70;51.10
7077;DHT22;3579;48.956;9.154;2024-02-21T14:41:36;23.10;49.10
7077;DHT22;3579;48.956;9.154;2024-02-21T14:44:03;23.10;52.10
7077;DHT22;3579;48.956;9.154;2024-02-21T14:46:29;23.00;49.80
7077;DHT22;3579;48.956;9.154;2024-02-21T14:48:55;23.00;51.30
7077;DHT22;3579;48.956;9.154;2024-02-21T14:51:21;23.10;52.50
7077;DHT22;3579;48.956;9.154;2024-02-21T14:53:48;23.10;53.00
7077;DHT22;3579;48.956;9.154;2024-02-21T14:56:15;23.10;53.30
7077;DHT22;3579;48.956;9.154;2024-02-21T14:58:42;23.00;53.30
7077;DHT22;3579;48.956;9.154;2024-02-21T15:01:08;23.00;53.00
7077;DHT22;3579;48.956;9.154;2024-02-21T15:03:34;22.90;52.70
7077;DHT22;3579;48.956;9.154;2024-02-21T15:06:00;22.90;53.00
7077;DHT22;3579;48.956;9.154;2024-02-21T15:08:27;22.80;52.60
7077;DHT22;3579;48.956;9.154;2024-02-21T15:10:54;22.80;52.90
7077;DHT22;3579;48.956;9.154;2024-02-21T15:13:20;22.70;52.30
7077;DHT22;3579;48.956;9.154;2024-02-21T15:15:48;22.70;52.80
7077;DHT22;3579;48.956;9.154;2024-02-21T15:18:14;22.60;52.50
7077;DHT22;3579;48.956;9.154;2024-02-21T15:20:41;22.60;52.70
7077;DHT22;3579;48.956;9.154;2024-02-21T15:23:07;22.50;52.90
7077;DHT22;3579;48.956;9.154;2024-02-21T15:25:34;22.50;49.80
7077;DHT22;3579;48.956;9.154;2024-02-21T15:28:00;22.20;48.90
7077;DHT22;3579;48.956;9.154;2024-02-21T15:30:28;22.10;49.50
7077;DHT22;3579;48.956;9.154;2024-02-21T15:32:58;22.00;50.10
7077;DHT22;3579;48.956;9.154;2024-02-21T15:35:28;22.00;50.40
7077;DHT22;3579;48.956;9.154;2024-02-21T15:37:55;21.90;50.20
7077;DHT22;3579;48.956;9.154;2024-02-21T15:40:24;21.90;50.50
7077;DHT22;3579;48.956;9.154;2024-02-21T15:42:50;21.80;50.60
7077;DHT22;3579;48.956;9.154;2024-02-21T15:45:17;21.90;51.00
7077;DHT22;3579;48.956;9.154;2024-02-21T15:47:44;21.80;50.80
7077;DHT22;3579;48.956;9.154;2024-02-21T15:50:10;21.80;50.90
7077;DHT22;3579;48.956;9.154;2024-02-21T15:52:37;21.80;51.30
7077;DHT22;3579;48.956;9.154;2024-02-21T15:55:05;21.80;51.40
7077;DHT22;3579;48.956;9.154;2024-02-21T15:57:32;21.80;51.60
7077;DHT22;3579;48.956;9.154;2024-02-21T15:59:58;21.80;51.60
7077;DHT22;3579;48.956;9.154;2024-02-21T16:02:24;21.80;52.00
7077;DHT22;3579;48.956;9.154;2024-02-21T16:04:50;21.80;51.90
7077;DHT22;3579;48.956;9.154;2024-02-21T16:07:16;21.80;52.10
7077;DHT22;3579;48.956;9.154;2024-02-21T16:09:44;21.70;52.50